sensor_id;sensor_type;location;lat;lon;timestamp;pressure;altitude;pressure_sealevel;temperature;humidity
59055;BME280;44845;51.444;7.460;2023-07-29T00:00:19;98973.94;;;18.42;100.00
59055;BME280;44845;51.444;7.460;2023-07-29T00:02:45;98982.75;;;18.42;100.00
59055;BME280;44845;51.444;7.460;2023-07-29T00:05:11;98980.19;;;18.41;100.00
59055;BME280;44845;51.444;7.460;2023-07-29T00:07:36;98979.41;;;18.39;100.00
59055;BME280;44845;51.444;7.460;2023-07-29T00:10:02;98975.22;;;18.34;100.00
59055;BME280;44845;51.444;7.460;2023-07-29T00:12:28;98983.94;;;18.37;100.00
59055;BME280;44845;51.444;7.460;2023-07-29T00:14:54;98979.41;;;18.39;100.00
59055;BME280;44845;51.444;7.460;2023-07-29T00:17:19;98978.63;;;18.37;100.00
59055;BME280;44845;51.444;7.460;2023-07-29T00:19:45;98976.94;;;18.36;100.00
59055;BME280;44845;51.444;7.460;2023-07-29T00:22:11;98978.81;;;18.33;100.00
59055;BME280;44845;51.444;7.460;2023-07-29T00:24:36;98976.06;;;18.35;100.00
59055;BME280;44845;51.444;7.460;2023-07-29T00:27:01;98968.97;;;18.36;100.00
59055;BME280;44845;51.444;7.460;2023-07-29T00:29:27;98966.31;;;18.36;100.00
59055;BME280;44845;51.444;7.460;2023-07-29T00:31:52;98966.47;;;18.32;100.00
59055;BME280;44845;51.444;7.460;2023-07-29T00:34:17;98960.16;;;18.35;100.00
59055;BME280;44845;51.444;7.460;2023-07-29T00:36:45;98954.94;;;18.33;100.00
59055;BME280;44845;51.444;7.460;2023-07-29T00:39:10;98954.13;;;18.31;100.00
59055;BME280;44845;51.444;7.460;2023-07-29T00:41:36;98947.91;;;18.32;100.00
59055;BME280;44845;51.444;7.460;2023-07-29T00:44:01;98949.09;;;18.27;100.00
59055;BME280;44845;51.444;7.460;2023-07-29T00:46:28;98943.78;;;18.27;100.00
59055;BME280;44845;51.444;7.460;2023-07-29T00:48:54;98941.31;;;18.23;100.00
59055;BME280;44845;51.444;7.460;2023-07-29T00:51:20;98942.13;;;18.24;100.00
59055;BME280;44845;51.444;7.460;2023-07-29T00:53:45;98932.53;;;18.21;100.00
59055;BME280;44845;51.444;7.460;2023-07-29T00:56:10;98941.47;;;18.20;100.00
59055;BME280;44845;51.444;7.460;2023-07-29T00:58:36;98937.16;;;18.18;100.00
59055;BME280;44845;51.444;7.460;2023-07-29T01:01:01;98939.91;;;18.16;100.00
59055;BME280;44845;51.444;7.460;2023-07-29T01:03:27;98932.00;;;18.15;100.00
59055;BME280;44845;51.444;7.460;2023-07-29T01:06:01;98933.72;;;18.16;100.00
59055;BME280;44845;51.444;7.460;2023-07-29T01:08:46;98937.03;;;18.21;100.00
59055;BME280;44845;51.444;7.460;2023-07-29T01:11:28;98933.53;;;18.19;100.00
59055;BME280;44845;51.444;7.460;2023-07-29T01:14:04;98923.13;;;18.16;100.00
59055;BME280;44845;51.444;7.460;2023-07-29T01:16:36;98924.81;;;18.17;100.00
59055;BME280;44845;51.444;7.460;2023-07-29T01:19:06;98922.34;;;18.14;100.00
59055;BME280;44845;51.444;7.460;2023-07-29T01:21:35;98925.56;;;18.20;100.00
59055;BME280;44845;51.444;7.460;2023-07-29T01:24:01;98914.19;;;18.17;100.00
59055;BME280;44845;51.444;7.460;2023-07-29T01:26:27;98914.38;;;18.14;100.00
59055;BME280;44845;51.444;7.460;2023-07-29T01:28:55;98924.81;;;18.17;100.00
59055;BME280;44845;51.444;7.460;2023-07-29T01:31:32;98926.63;;;18.16;100.00
59055;BME280;44845;51.444;7.460;2023-07-29T01:34:16;98922.09;;;18.18;100.00
59055;BME280;44845;51.444;7.460;2023-07-29T01:36:44;98926.84;;;18.11;100.00
59055;BME280;44845;51.444;7.460;2023-07-29T01:39:11;98922.59;;;18.09;100.00
59055;BME280;44845;51.444;7.460;2023-07-29T01:41:37;98923.53;;;18.08;100.00
59055;BME280;44845;51.444;7.460;2023-07-29T01:44:03;98912.81;;;18.09;100.00
59055;BME280;44845;51.444;7.460;2023-07-29T01:46:28;98914.72;;;18.07;100.00
59055;BME280;44845;51.444;7.460;2023-07-29T01:48:54;98911.44;;;18.02;100.00
59055;BME280;44845;51.444;7.460;2023-07-29T01:51:19;98900.06;;;18.00;100.00
59055;BME280;44845;51.444;7.460;2023-07-29T01:53:45;98898.13;;;18.04;100.00
59055;BME280;44845;51.444;7.460;2023-07-29T01:56:11;98904.25;;;18.04;100.00
59055;BME280;44845;51.444;7.460;2023-07-29T01:58:36;98898.03;;;18.05;100.00
59055;BME280;44845;51.444;7.460;2023-07-29T02:01:02;98899.13;;;18.01;100.00
59055;BME280;44845;51.444;7.460;2023-07-29T02:03:27;98904.50;;;17.99;100.00
59055;BME280;44845;51.444;7.460;2023-07-29T02:05:53;98898.28;;;18.00;100.00
59055;BME280;44845;51.444;7.460;2023-07-29T02:08:18;98903.47;;;18.02;100.00
59055;BME280;44845;51.444;7.460;2023-07-29T02:10:43;98899.13;;;18.01;100.00
59055;BME280;44845;51.444;7.460;2023-07-29T02:13:10;98898.94;;;18.04;100.00
59055;BME280;44845;51.444;7.460;2023-07-29T02:15:35;98887.56;;;18.02;100.00
59055;BME280;44845;51.444;7.460;2023-07-29T02:18:01;98891.00;;;18.04;100.00
59055;BME280;44845;51.444;7.460;2023-07-29T02:20:27;98890.22;;;18.02;100.00
59055;BME280;44845;51.444;7.460;2023-07-29T02:22:52;98890.41;;;17.99;100.00
59055;BME280;44845;51.444;7.460;2023-07-29T02:25:18;98888.69;;;17.98;100.00
59055;BME280;44845;51.444;7.460;2023-07-29T02:27:43;98887.81;;;17.97;100.00
59055;BME280;44845;51.444;7.460;2023-07-29T02:30:08;98875.31;;;17.99;100.00
59055;BME280;44845;51.444;7.460;2023-07-29T02:32:37;98881.66;;;17.97;100.00
59055;BME280;44845;51.444;7.460;2023-07-29T02:35:03;98876.97;;;18.02;100.00
59055;BME280;44845;51.444;7.460;2023-07-29T02:37:29;98877.16;;;17.99;100.00
59055;BME280;44845;51.444;7.460;2023-07-29T02:39:55;98870.13;;;17.98;100.00
59055;BME280;44845;51.444;7.460;2023-07-29T02:42:20;98860.38;;;17.98;100.00
59055;BME280;44845;51.444;7.460;2023-07-29T02:44:46;98864.03;;;17.96;100.00
59055;BME280;44845;51.444;7.460;2023-07-29T02:47:11;98853.34;;;17.97;100.00
59055;BME280;44845;51.444;7.460;2023-07-29T02:49:37;98862.94;;;18.00;100.00
59055;BME280;44845;51.444;7.460;2023-07-29T02:52:02;98870.88;;;18.00;100.00
59055;BME280;44845;51.444;7.460;2023-07-29T02:54:28;98869.34;;;17.96;100.00
59055;BME280;44845;51.444;7.460;2023-07-29T02:56:53;98871.03;;;17.97;100.00
59055;BME280;44845;51.444;7.460;2023-07-29T02:59:18;98867.63;;;17.95;100.00
59055;BME280;44845;51.444;7.460;2023-07-29T03:01:45;98860.44;;;17.97;100.00
59055;BME280;44845;51.444;7.460;2023-07-29T03:04:10;98856.16;;;17.94;100.00
59055;BME280;44845;51.444;7.460;2023-07-29T03:06:38;98866.84;;;17.93;100.00
59055;BME280;44845;51.444;7.460;2023-07-29T03:09:03;98870.38;;;17.93;100.00
59055;BME280;44845;51.444;7.460;2023-07-29T03:11:30;98865.94;;;17.94;100.00
59055;BME280;44845;51.444;7.460;2023-07-29T03:13:56;98867.81;;;17.92;100.00
59055;BME280;44845;51.444;7.460;2023-07-29T03:16:22;98873.88;;;17.94;100.00
59055;BME280;44845;51.444;7.460;2023-07-29T03:18:48;98870.22;;;17.96;100.00
59055;BME280;44845;51.444;7.460;2023-07-29T03:21:14;98874.66;;;17.96;100.00
59055;BME280;44845;51.444;7.460;2023-07-29T03:23:39;98891.19;;;18.01;100.00
59055;BME280;44845;51.444;7.460;2023-07-29T03:26:04;98890.56;;;17.96;100.00
59055;BME280;44845;51.444;7.460;2023-07-29T03:28:37;98892.44;;;17.94;100.00
59055;BME280;44845;51.444;7.460;2023-07-29T03:31:03;98897.56;;;17.97;100.00
59055;BME280;44845;51.444;7.460;2023-07-29T03:33:29;98891.59;;;17.93;100.00
59055;BME280;44845;51.444;7.460;2023-07-29T03:35:54;98887.91;;;17.96;100.00
59055;BME280;44845;51.444;7.460;2023-07-29T03:38:20;98881.66;;;17.97;100.00
59055;BME280;44845;51.444;7.460;2023-07-29T03:40:45;98870.03;;;17.99;100.00
59055;BME280;44845;51.444;7.460;2023-07-29T03:43:11;98872.00;;;17.96;100.00
59055;BME280;44845;51.444;7.460;2023-07-29T03:45:37;98871.22;;;17.94;100.00
59055;BME280;44845;51.444;7.460;2023-07-29T03:48:03;98873.69;;;17.97;100.00
59055;BME280;44845;51.444;7.460;2023-07-29T03:50:29;98864.91;;;17.96;100.00
59055;BME280;44845;51.444;7.460;2023-07-29T03:52:55;98861.47;;;17.94;100.00
59055;BME280;44845;51.444;7.460;2023-07-29T03:55:20;98865.84;;;17.95;100.00
59055;BME280;44845;51.444;7.460;2023-07-29T03:57:46;98869.34;;;17.96;100.00
59055;BME280;44845;51.444;7.460;2023-07-29T04:00:11;98852.41;;;17.98;100.00
59055;BME280;44845;51.444;7.460;2023-07-29T04:02:37;98861.56;;;17.93;100.00
59055;BME280;44845;51.444;7.460;2023-07-29T04:05:06;98866.59;;;17.97;100.00
59055;BME280;44845;51.444;7.460;2023-07-29T04:07:33;98862.25;;;17.96;100.00
59055;BME280;44845;51.444;7.460;2023-07-29T04:09:59;98863.88;;;17.99;100.00
59055;BME280;44845;51.444;7.460;2023-07-29T04:12:24;98862.16;;;17.98;100.00
59055;BME280;44845;51.444;7.460;2023-07-29T04:14:50;98861.41;;;17.96;100.00
59055;BME280;44845;51.444;7.460;2023-07-29T04:17:15;98855.31;;;17.94;100.00
59055;BME280;44845;51.444;7.460;2023-07-29T04:19:41;98873.63;;;17.98;100.00
59055;BME280;44845;51.444;7.460;2023-07-29T04:22:06;98870.03;;;17.99;100.00
59055;BME280;44845;51.444;7.460;2023-07-29T04:24:31;98875.31;;;17.99;100.00
59055;BME280;44845;51.444;7.460;2023-07-29T04:26:57;98873.53;;;18.00;100.00
59055;BME280;44845;51.444;7.460;2023-07-29T04:29:22;98883.22;;;18.01;100.00
59055;BME280;44845;51.444;7.460;2023-07-29T04:31:49;98883.22;;;18.01;100.00
59055;BME280;44845;51.444;7.460;2023-07-29T04:34:14;98875.06;;;18.04;100.00
59055;BME280;44845;51.444;7.460;2023-07-29T04:36:39;98879.63;;;18.02;100.00
59055;BME280;44845;51.444;7.460;2023-07-29T04:39:05;98870.72;;;18.03;100.00
59055;BME280;44845;51.444;7.460;2023-07-29T04:41:30;98855.75;;;18.02;100.00
59055;BME280;44845;51.444;7.460;2023-07-29T04:43:55;98854.66;;;18.06;100.00
59055;BME280;44845;51.444;7.460;2023-07-29T04:46:21;98858.06;;;18.08;100.00
59055;BME280;44845;51.444;7.460;2023-07-29T04:48:46;98853.63;;;18.09;100.00
59055;BME280;44845;51.444;7.460;2023-07-29T04:51:12;98840.44;;;18.07;100.00
59055;BME280;44845;51.444;7.460;2023-07-29T04:53:37;98841.44;;;18.05;100.00
59055;BME280;44845;51.444;7.460;2023-07-29T04:56:03;98850.28;;;18.05;100.00
59055;BME280;44845;51.444;7.460;2023-07-29T04:58:29;98856.94;;;18.12;100.00
59055;BME280;44845;51.444;7.460;2023-07-29T05:00:58;98867.56;;;18.12;100.00
59055;BME280;44845;51.444;7.460;2023-07-29T05:03:23;98871.63;;;18.20;100.00
59055;BME280;44845;51.444;7.460;2023-07-29T05:05:48;98870.91;;;18.16;100.00
59055;BME280;44845;51.444;7.460;2023-07-29T05:08:14;98883.31;;;18.16;100.00
59055;BME280;44845;51.444;7.460;2023-07-29T05:10:39;98895.81;;;18.14;100.00
59055;BME280;44845;51.444;7.460;2023-07-29T05:13:04;98896.38;;;18.20;100.00
59055;BME280;44845;51.444;7.460;2023-07-29T05:15:30;98896.38;;;18.20;100.00
59055;BME280;44845;51.444;7.460;2023-07-29T05:17:56;98899.00;;;18.20;100.00
59055;BME280;44845;51.444;7.460;2023-07-29T05:20:21;98901.69;;;18.19;100.00
59055;BME280;44845;51.444;7.460;2023-07-29T05:22:46;98905.31;;;18.18;100.00
59055;BME280;44845;51.444;7.460;2023-07-29T05:25:12;98897.44;;;18.16;100.00
59055;BME280;44845;51.444;7.460;2023-07-29T05:27:37;98907.97;;;18.18;100.00
59055;BME280;44845;51.444;7.460;2023-07-29T05:30:02;98900.88;;;18.18;100.00
59055;BME280;44845;51.444;7.460;2023-07-29T05:32:28;98897.28;;;18.19;100.00
59055;BME280;44845;51.444;7.460;2023-07-29T05:34:54;98876.94;;;18.20;100.00
59055;BME280;44845;51.444;7.460;2023-07-29T05:37:20;98885.78;;;18.19;100.00
59055;BME280;44845;51.444;7.460;2023-07-29T05:39:45;98874.28;;;18.20;100.00
59055;BME280;44845;51.444;7.460;2023-07-29T05:42:10;98869.56;;;18.25;100.00
59055;BME280;44845;51.444;7.460;2023-07-29T05:44:36;98858.59;;;18.31;100.00
59055;BME280;44845;51.444;7.460;2023-07-29T05:47:01;98858.78;;;18.28;100.00
59055;BME280;44845;51.444;7.460;2023-07-29T05:49:26;98860.16;;;18.36;100.00
59055;BME280;44845;51.444;7.460;2023-07-29T05:51:52;98865.28;;;18.39;100.00
59055;BME280;44845;51.444;7.460;2023-07-29T05:54:18;98872.47;;;18.37;100.00
59055;BME280;44845;51.444;7.460;2023-07-29T05:56:44;98884.66;;;18.41;100.00
59055;BME280;44845;51.444;7.460;2023-07-29T05:59:09;98885.56;;;18.40;100.00
59055;BME280;44845;51.444;7.460;2023-07-29T06:01:34;98890.13;;;18.38;100.00
59055;BME280;44845;51.444;7.460;2023-07-29T06:04:00;98898.84;;;18.40;100.00
59055;BME280;44845;51.444;7.460;2023-07-29T06:06:25;98905.88;;;18.41;100.00
59055;BME280;44845;51.444;7.460;2023-07-29T06:08:51;98914.00;;;18.38;100.00
59055;BME280;44845;51.444;7.460;2023-07-29T06:11:16;98921.09;;;18.37;100.00
59055;BME280;44845;51.444;7.460;2023-07-29T06:13:42;98932.59;;;18.38;100.00
59055;BME280;44845;51.444;7.460;2023-07-29T06:16:07;98944.06;;;18.38;100.00
59055;BME280;44845;51.444;7.460;2023-07-29T06:18:32;98947.81;;;18.34;100.00
59055;BME280;44845;51.444;7.460;2023-07-29T06:20:58;98941.81;;;18.30;100.00
59055;BME280;44845;51.444;7.460;2023-07-29T06:23:23;98934.97;;;18.26;100.00
59055;BME280;44845;51.444;7.460;2023-07-29T06:25:49;98932.38;;;18.25;100.00
59055;BME280;44845;51.444;7.460;2023-07-29T06:28:14;98932.31;;;18.26;100.00
59055;BME280;44845;51.444;7.460;2023-07-29T06:30:39;98941.22;;;18.25;100.00
59055;BME280;44845;51.444;7.460;2023-07-29T06:33:05;98960.72;;;18.24;100.00
59055;BME280;44845;51.444;7.460;2023-07-29T06:35:31;98961.66;;;18.23;100.00
59055;BME280;44845;51.444;7.460;2023-07-29T06:37:57;98966.81;;;18.26;100.00
59055;BME280;44845;51.444;7.460;2023-07-29T06:40:22;98968.53;;;18.27;100.00
59055;BME280;44845;51.444;7.460;2023-07-29T06:42:47;98979.53;;;18.19;100.00
59055;BME280;44845;51.444;7.460;2023-07-29T06:45:13;98980.78;;;18.12;100.00
59055;BME280;44845;51.444;7.460;2023-07-29T06:47:38;98978.91;;;18.14;100.00
59055;BME280;44845;51.444;7.460;2023-07-29T06:50:04;98976.34;;;18.12;100.00
59055;BME280;44845;51.444;7.460;2023-07-29T06:52:29;98975.81;;;18.06;100.00
59055;BME280;44845;51.444;7.460;2023-07-29T06:54:55;98979.00;;;18.12;100.00
59055;BME280;44845;51.444;7.460;2023-07-29T06:57:20;98981.28;;;18.19;100.00
59055;BME280;44845;51.444;7.460;2023-07-29T06:59:45;98984.84;;;18.19;100.00
59055;BME280;44845;51.444;7.460;2023-07-29T07:02:11;98988.44;;;18.18;100.00
59055;BME280;44845;51.444;7.460;2023-07-29T07:04:36;98986.94;;;18.12;99.50
59055;BME280;44845;51.444;7.460;2023-07-29T07:07:02;98993.03;;;18.15;99.73
59055;BME280;44845;51.444;7.460;2023-07-29T07:09:27;98993.50;;;18.23;100.00
59055;BME280;44845;51.444;7.460;2023-07-29T07:11:52;98981.94;;;18.24;99.09
59055;BME280;44845;51.444;7.460;2023-07-29T07:14:18;98988.38;;;18.20;98.67
59055;BME280;44845;51.444;7.460;2023-07-29T07:16:43;98982.91;;;18.23;98.64
59055;BME280;44845;51.444;7.460;2023-07-29T07:19:09;98993.50;;;18.23;98.20
59055;BME280;44845;51.444;7.460;2023-07-29T07:21:34;98987.09;;;18.27;98.00
59055;BME280;44845;51.444;7.460;2023-07-29T07:24:00;98991.22;;;18.33;97.37
59055;BME280;44845;51.444;7.460;2023-07-29T07:26:25;98995.75;;;18.31;97.05
59055;BME280;44845;51.444;7.460;2023-07-29T07:28:50;98989.44;;;18.33;97.71
59055;BME280;44845;51.444;7.460;2023-07-29T07:31:16;98994.75;;;18.33;97.45
59055;BME280;44845;51.444;7.460;2023-07-29T07:33:42;98995.41;;;18.37;97.37
59055;BME280;44845;51.444;7.460;2023-07-29T07:36:07;98997.22;;;18.37;96.55
59055;BME280;44845;51.444;7.460;2023-07-29T07:38:33;99005.16;;;18.37;97.39
59055;BME280;44845;51.444;7.460;2023-07-29T07:40:58;98996.03;;;18.42;96.58
59055;BME280;44845;51.444;7.460;2023-07-29T07:43:24;98994.56;;;18.37;96.53
59055;BME280;44845;51.444;7.460;2023-07-29T07:45:50;99004.00;;;18.42;95.79
59055;BME280;44845;51.444;7.460;2023-07-29T07:48:18;98995.25;;;18.56;96.04
59055;BME280;44845;51.444;7.460;2023-07-29T07:50:45;98996.47;;;18.67;95.60
59055;BME280;44845;51.444;7.460;2023-07-29T07:53:10;98995.97;;;18.76;94.99
59055;BME280;44845;51.444;7.460;2023-07-29T07:55:36;98985.00;;;18.83;95.61
59055;BME280;44845;51.444;7.460;2023-07-29T07:58:01;98980.78;;;18.78;95.23
59055;BME280;44845;51.444;7.460;2023-07-29T08:00:26;98979.75;;;18.81;94.33
59055;BME280;44845;51.444;7.460;2023-07-29T08:02:52;98976.78;;;18.87;93.48
59055;BME280;44845;51.444;7.460;2023-07-29T08:05:17;98985.25;;;18.94;92.59
59055;BME280;44845;51.444;7.460;2023-07-29T08:07:43;98986.38;;;18.90;93.23
59055;BME280;44845;51.444;7.460;2023-07-29T08:10:08;98976.75;;;19.04;92.32
59055;BME280;44845;51.444;7.460;2023-07-29T08:12:34;98968.44;;;18.94;92.42
59055;BME280;44845;51.444;7.460;2023-07-29T08:14:59;98973.38;;;19.00;90.19
59055;BME280;44845;51.444;7.460;2023-07-29T08:17:24;98970.94;;;18.97;89.15
59055;BME280;44845;51.444;7.460;2023-07-29T08:19:50;98980.59;;;18.98;90.20
59055;BME280;44845;51.444;7.460;2023-07-29T08:22:15;98987.72;;;18.97;91.68
59055;BME280;44845;51.444;7.460;2023-07-29T08:24:42;98992.09;;;18.98;92.77
59055;BME280;44845;51.444;7.460;2023-07-29T08:27:07;98986.16;;;18.93;93.23
59055;BME280;44845;51.444;7.460;2023-07-29T08:29:33;98988.22;;;18.88;93.11
59055;BME280;44845;51.444;7.460;2023-07-29T08:31:58;98987.56;;;18.84;92.49
59055;BME280;44845;51.444;7.460;2023-07-29T08:34:23;98987.91;;;18.94;92.40
59055;BME280;44845;51.444;7.460;2023-07-29T08:36:49;98989.94;;;19.05;92.57
59055;BME280;44845;51.444;7.460;2023-07-29T08:39:14;98989.94;;;19.05;92.00
59055;BME280;44845;51.444;7.460;2023-07-29T08:41:51;98991.91;;;19.01;90.68
59055;BME280;44845;51.444;7.460;2023-07-29T08:44:22;98994.91;;;18.95;90.45
59055;BME280;44845;51.444;7.460;2023-07-29T08:46:49;98989.03;;;18.90;88.17
59055;BME280;44845;51.444;7.460;2023-07-29T08:49:15;98997.22;;;18.85;90.73
59055;BME280;44845;51.444;7.460;2023-07-29T08:51:44;98998.78;;;18.73;92.97
59055;BME280;44845;51.444;7.460;2023-07-29T08:54:12;98995.63;;;18.83;92.05
59055;BME280;44845;51.444;7.460;2023-07-29T08:56:38;98996.66;;;18.80;92.15
59055;BME280;44845;51.444;7.460;2023-07-29T08:59:04;99000.94;;;18.83;93.85
59055;BME280;44845;51.444;7.460;2023-07-29T09:01:30;99001.88;;;18.82;91.63
59055;BME280;44845;51.444;7.460;2023-07-29T09:03:56;98995.50;;;18.68;89.69
59055;BME280;44845;51.444;7.460;2023-07-29T09:06:21;98993.56;;;18.72;90.73
59055;BME280;44845;51.444;7.460;2023-07-29T09:08:49;98994.25;;;18.75;90.11
59055;BME280;44845;51.444;7.460;2023-07-29T09:11:15;98998.00;;;18.71;90.12
59055;BME280;44845;51.444;7.460;2023-07-29T09:13:42;98988.59;;;18.82;91.75
59055;BME280;44845;51.444;7.460;2023-07-29T09:16:08;98979.00;;;18.79;91.69
59055;BME280;44845;51.444;7.460;2023-07-29T09:18:34;98977.94;;;18.98;91.91
59055;BME280;44845;51.444;7.460;2023-07-29T09:20:59;98975.38;;;18.96;88.44
59055;BME280;44845;51.444;7.460;2023-07-29T09:23:26;98977.00;;;18.99;89.97
59055;BME280;44845;51.444;7.460;2023-07-29T09:26:00;98982.56;;;19.10;90.44
59055;BME280;44845;51.444;7.460;2023-07-29T09:28:26;98980.19;;;19.22;88.59
59055;BME280;44845;51.444;7.460;2023-07-29T09:30:52;98978.34;;;19.22;90.15
59055;BME280;44845;51.444;7.460;2023-07-29T09:33:18;98974.22;;;19.33;90.28
59055;BME280;44845;51.444;7.460;2023-07-29T09:35:44;98975.25;;;19.30;89.50
59055;BME280;44845;51.444;7.460;2023-07-29T09:38:14;98982.09;;;19.34;88.65
59055;BME280;44845;51.444;7.460;2023-07-29T09:40:40;98984.69;;;19.36;91.41
59055;BME280;44845;51.444;7.460;2023-07-29T09:43:08;98988.59;;;19.45;90.00
59055;BME280;44845;51.444;7.460;2023-07-29T09:45:34;98989.19;;;19.50;91.23
59055;BME280;44845;51.444;7.460;2023-07-29T09:48:00;98990.91;;;19.51;90.13
59055;BME280;44845;51.444;7.460;2023-07-29T09:50:27;98995.84;;;19.57;90.80
59055;BME280;44845;51.444;7.460;2023-07-29T09:52:54;98991.56;;;19.55;88.45
59055;BME280;44845;51.444;7.460;2023-07-29T09:55:22;98991.75;;;19.52;90.08
59055;BME280;44845;51.444;7.460;2023-07-29T09:57:53;98992.84;;;19.64;88.85
59055;BME280;44845;51.444;7.460;2023-07-29T10:00:18;98985.13;;;19.74;87.67
59055;BME280;44845;51.444;7.460;2023-07-29T10:02:44;98981.53;;;19.75;86.36
59055;BME280;44845;51.444;7.460;2023-07-29T10:05:10;98994.84;;;19.89;86.24
59055;BME280;44845;51.444;7.460;2023-07-29T10:07:39;98989.38;;;19.92;88.46
59055;BME280;44845;51.444;7.460;2023-07-29T10:10:06;98990.56;;;19.87;85.05
59055;BME280;44845;51.444;7.460;2023-07-29T10:12:33;98989.41;;;19.76;86.51
59055;BME280;44845;51.444;7.460;2023-07-29T10:15:00;98991.53;;;19.71;86.57
59055;BME280;44845;51.444;7.460;2023-07-29T10:17:26;99002.81;;;19.75;86.94
59055;BME280;44845;51.444;7.460;2023-07-29T10:19:53;98997.69;;;19.72;85.87
59055;BME280;44845;51.444;7.460;2023-07-29T10:22:21;98999.22;;;19.76;86.17
59055;BME280;44845;51.444;7.460;2023-07-29T10:24:48;99000.25;;;19.73;86.03
59055;BME280;44845;51.444;7.460;2023-07-29T10:27:17;98998.19;;;19.78;87.57
59055;BME280;44845;51.444;7.460;2023-07-29T10:29:43;98996.38;;;19.94;86.64
59055;BME280;44845;51.444;7.460;2023-07-29T10:32:11;98990.69;;;20.00;86.26
59055;BME280;44845;51.444;7.460;2023-07-29T10:34:36;98993.53;;;19.97;85.17
59055;BME280;44845;51.444;7.460;2023-07-29T10:37:03;98997.16;;;19.96;85.04
59055;BME280;44845;51.444;7.460;2023-07-29T10:39:38;98992.59;;;19.98;83.96
59055;BME280;44845;51.444;7.460;2023-07-29T10:42:06;99001.16;;;20.03;82.18
59055;BME280;44845;51.444;7.460;2023-07-29T10:47:19;98989.97;;;20.12;84.51
59055;BME280;44845;51.444;7.460;2023-07-29T10:49:46;98995.00;;;20.17;84.74
59055;BME280;44845;51.444;7.460;2023-07-29T10:52:37;98990.03;;;20.25;86.55
59055;BME280;44845;51.444;7.460;2023-07-29T10:55:23;98989.19;;;19.96;82.47
59055;BME280;44845;51.444;7.460;2023-07-29T10:57:49;98990.13;;;19.95;83.12
59055;BME280;44845;51.444;7.460;2023-07-29T11:00:15;98974.91;;;19.97;84.95
59055;BME280;44845;51.444;7.460;2023-07-29T11:02:41;98967.69;;;19.99;87.08
59055;BME280;44845;51.444;7.460;2023-07-29T11:05:15;98985.38;;;20.00;87.98
59055;BME280;44845;51.444;7.460;2023-07-29T11:07:45;98988.97;;;19.99;88.26
59055;BME280;44845;51.444;7.460;2023-07-29T11:10:12;98993.53;;;19.97;86.66
59055;BME280;44845;51.444;7.460;2023-07-29T11:12:47;98995.25;;;19.98;86.76
59055;BME280;44845;51.444;7.460;2023-07-29T11:15:16;98987.63;;;19.91;85.82
59055;BME280;44845;51.444;7.460;2023-07-29T11:18:01;98989.84;;;19.99;87.31
59055;BME280;44845;51.444;7.460;2023-07-29T11:20:31;98986.25;;;20.00;87.49
59055;BME280;44845;51.444;7.460;2023-07-29T11:22:58;98978.91;;;19.89;85.31
59055;BME280;44845;51.444;7.460;2023-07-29T11:25:25;98967.03;;;19.95;85.31
59055;BME280;44845;51.444;7.460;2023-07-29T11:27:54;98969.97;;;20.05;85.29
59055;BME280;44845;51.444;7.460;2023-07-29T11:30:20;98965.31;;;20.09;86.23
59055;BME280;44845;51.444;7.460;2023-07-29T11:32:46;98962.41;;;20.13;86.85
59055;BME280;44845;51.444;7.460;2023-07-29T11:35:14;98969.69;;;20.10;86.94
59055;BME280;44845;51.444;7.460;2023-07-29T11:37:41;98965.81;;;20.16;86.85
59055;BME280;44845;51.444;7.460;2023-07-29T11:40:07;98962.69;;;20.23;85.49
59055;BME280;44845;51.444;7.460;2023-07-29T11:42:36;98968.19;;;20.35;86.12
59055;BME280;44845;51.444;7.460;2023-07-29T11:45:02;98975.22;;;20.36;83.66
59055;BME280;44845;51.444;7.460;2023-07-29T11:47:29;98971.22;;;20.43;83.63
59055;BME280;44845;51.444;7.460;2023-07-29T11:49:58;98973.81;;;20.45;83.07
59055;BME280;44845;51.444;7.460;2023-07-29T11:52:24;98977.78;;;20.52;81.92
59055;BME280;44845;51.444;7.460;2023-07-29T11:54:49;98987.09;;;20.59;82.30
59055;BME280;44845;51.444;7.460;2023-07-29T11:57:16;98978.91;;;20.48;80.76
59055;BME280;44845;51.444;7.460;2023-07-29T11:59:42;98981.09;;;20.56;81.50
59055;BME280;44845;51.444;7.460;2023-07-29T12:02:10;98981.75;;;20.59;82.35
59055;BME280;44845;51.444;7.460;2023-07-29T12:04:37;98980.03;;;20.58;80.79
59055;BME280;44845;51.444;7.460;2023-07-29T12:07:04;98985.44;;;20.72;80.71
59055;BME280;44845;51.444;7.460;2023-07-29T12:09:29;98975.84;;;20.69;78.30
59055;BME280;44845;51.444;7.460;2023-07-29T12:11:56;98967.44;;;20.75;79.74
59055;BME280;44845;51.444;7.460;2023-07-29T12:14:21;98962.56;;;20.82;81.97
59055;BME280;44845;51.444;7.460;2023-07-29T12:16:51;98971.22;;;20.86;80.44
59055;BME280;44845;51.444;7.460;2023-07-29T12:19:17;98968.66;;;20.84;82.09
59055;BME280;44845;51.444;7.460;2023-07-29T12:21:43;98963.63;;;20.79;78.68
59055;BME280;44845;51.444;7.460;2023-07-29T12:24:09;98967.25;;;20.78;80.28
59055;BME280;44845;51.444;7.460;2023-07-29T12:26:36;98963.91;;;20.75;81.00
59055;BME280;44845;51.444;7.460;2023-07-29T12:29:15;98956.69;;;20.77;81.66
59055;BME280;44845;51.444;7.460;2023-07-29T12:31:41;98977.75;;;20.67;81.94
59055;BME280;44845;51.444;7.460;2023-07-29T12:34:07;98965.38;;;20.66;81.43
59055;BME280;44845;51.444;7.460;2023-07-29T12:39:16;98974.88;;;20.70;80.35
59055;BME280;44845;51.444;7.460;2023-07-29T12:41:41;98971.06;;;20.74;80.60
59055;BME280;44845;51.444;7.460;2023-07-29T12:44:07;98963.84;;;20.76;80.07
59055;BME280;44845;51.444;7.460;2023-07-29T12:46:32;98968.09;;;20.79;78.15
59055;BME280;44845;51.444;7.460;2023-07-29T12:48:58;98959.06;;;20.81;82.11
59055;BME280;44845;51.444;7.460;2023-07-29T12:51:23;98958.00;;;20.84;80.08
59055;BME280;44845;51.444;7.460;2023-07-29T12:53:48;98952.97;;;20.79;78.80
59055;BME280;44845;51.444;7.460;2023-07-29T12:56:13;98960.88;;;20.81;78.71